sensor_id;sensor_type;location;lat;lon;timestamp;P1;durP1;ratioP1;P2;durP2;ratioP2
22973;SDS011;11653;50.848;4.584;2023-05-07T00:01:25;13.67;;;6.90;;
22973;SDS011;11653;50.848;4.584;2023-05-07T00:03:51;12.67;;;6.83;;
22973;SDS011;11653;50.848;4.584;2023-05-07T00:06:16;12.80;;;6.70;;
22973;SDS011;11653;50.848;4.584;2023-05-07T00:08:42;15.20;;;7.03;;
22973;SDS011;11653;50.848;4.584;2023-05-07T00:11:08;10.43;;;6.83;;
22973;SDS011;11653;50.848;4.584;2023-05-07T00:13:34;14.20;;;7.43;;
22973;SDS011;11653;50.848;4.584;2023-05-07T00:16:01;11.10;;;6.40;;
22973;SDS011;11653;50.848;4.584;2023-05-07T00:18:27;11.37;;;5.93;;
22973;SDS011;11653;50.848;4.584;2023-05-07T00:20:53;9.53;;;6.87;;
22973;SDS011;11653;50.848;4.584;2023-05-07T00:23:19;12.90;;;6.97;;
22973;SDS011;11653;50.848;4.584;2023-05-07T00:25:44;10.87;;;7.20;;
22973;SDS011;11653;50.848;4.584;2023-05-07T00:28:10;16.47;;;7.30;;
22973;SDS011;11653;50.848;4.584;2023-05-07T00:30:36;8.43;;;6.00;;
22973;SDS011;11653;50.848;4.584;2023-05-07T00:33:01;14.10;;;6.60;;
22973;SDS011;11653;50.848;4.584;2023-05-07T00:35:28;12.93;;;6.57;;
22973;SDS011;11653;50.848;4.584;2023-05-07T00:37:55;14.27;;;6.47;;
22973;SDS011;11653;50.848;4.584;2023-05-07T00:40:20;11.67;;;6.37;;
22973;SDS011;11653;50.848;4.584;2023-05-07T00:42:46;11.33;;;6.33;;
22973;SDS011;11653;50.848;4.584;2023-05-07T00:45:13;9.93;;;6.10;;
22973;SDS011;11653;50.848;4.584;2023-05-07T00:47:40;13.37;;;6.27;;
22973;SDS011;11653;50.848;4.584;2023-05-07T00:50:07;8.23;;;5.87;;
22973;SDS011;11653;50.848;4.584;2023-05-07T00:52:36;9.43;;;6.20;;
22973;SDS011;11653;50.848;4.584;2023-05-07T00:55:04;14.83;;;6.70;;
22973;SDS011;11653;50.848;4.584;2023-05-07T00:57:32;11.87;;;6.27;;
22973;SDS011;11653;50.848;4.584;2023-05-07T01:00:02;11.70;;;5.57;;
22973;SDS011;11653;50.848;4.584;2023-05-07T01:02:29;9.57;;;6.03;;
22973;SDS011;11653;50.848;4.584;2023-05-07T01:04:55;9.83;;;6.10;;
22973;SDS011;11653;50.848;4.584;2023-05-07T01:07:21;11.87;;;5.97;;
22973;SDS011;11653;50.848;4.584;2023-05-07T01:09:47;11.17;;;6.23;;
22973;SDS011;11653;50.848;4.584;2023-05-07T01:12:13;10.90;;;5.70;;
22973;SDS011;11653;50.848;4.584;2023-05-07T01:14:40;9.87;;;6.37;;
22973;SDS011;11653;50.848;4.584;2023-05-07T01:17:06;11.03;;;5.93;;
22973;SDS011;11653;50.848;4.584;2023-05-07T01:19:33;12.77;;;6.57;;
22973;SDS011;11653;50.848;4.584;2023-05-07T01:22:07;14.83;;;6.70;;
22973;SDS011;11653;50.848;4.584;2023-05-07T01:24:36;11.30;;;6.23;;
22973;SDS011;11653;50.848;4.584;2023-05-07T01:27:02;11.40;;;6.50;;
22973;SDS011;11653;50.848;4.584;2023-05-07T01:29:28;10.80;;;6.50;;
22973;SDS011;11653;50.848;4.584;2023-05-07T01:31:56;14.53;;;6.90;;
22973;SDS011;11653;50.848;4.584;2023-05-07T01:34:24;14.73;;;6.40;;
22973;SDS011;11653;50.848;4.584;2023-05-07T01:36:52;11.63;;;7.13;;
22973;SDS011;11653;50.848;4.584;2023-05-07T01:39:20;10.10;;;6.50;;
22973;SDS011;11653;50.848;4.584;2023-05-07T01:41:50;10.70;;;6.30;;
22973;SDS011;11653;50.848;4.584;2023-05-07T01:44:16;13.03;;;6.57;;
22973;SDS011;11653;50.848;4.584;2023-05-07T01:46:43;12.47;;;7.00;;
22973;SDS011;11653;50.848;4.584;2023-05-07T01:49:09;12.03;;;7.20;;
22973;SDS011;11653;50.848;4.584;2023-05-07T01:51:34;14.13;;;6.67;;
22973;SDS011;11653;50.848;4.584;2023-05-07T01:54:01;11.10;;;6.57;;
22973;SDS011;11653;50.848;4.584;2023-05-07T01:56:26;8.73;;;6.20;;
22973;SDS011;11653;50.848;4.584;2023-05-07T01:58:52;13.00;;;6.17;;
22973;SDS011;11653;50.848;4.584;2023-05-07T02:01:18;13.60;;;6.57;;
22973;SDS011;11653;50.848;4.584;2023-05-07T02:03:43;14.07;;;6.47;;
22973;SDS011;11653;50.848;4.584;2023-05-07T02:06:09;10.40;;;6.20;;
22973;SDS011;11653;50.848;4.584;2023-05-07T02:08:35;10.07;;;6.43;;
22973;SDS011;11653;50.848;4.584;2023-05-07T02:11:01;10.37;;;6.07;;
22973;SDS011;11653;50.848;4.584;2023-05-07T02:13:28;10.37;;;5.93;;
22973;SDS011;11653;50.848;4.584;2023-05-07T02:15:55;12.03;;;6.53;;
22973;SDS011;11653;50.848;4.584;2023-05-07T02:18:21;10.53;;;5.60;;
22973;SDS011;11653;50.848;4.584;2023-05-07T02:20:46;12.37;;;6.00;;
22973;SDS011;11653;50.848;4.584;2023-05-07T02:23:12;11.27;;;6.83;;
22973;SDS011;11653;50.848;4.584;2023-05-07T02:25:38;12.30;;;6.37;;
22973;SDS011;11653;50.848;4.584;2023-05-07T02:28:03;10.37;;;6.63;;
22973;SDS011;11653;50.848;4.584;2023-05-07T02:30:29;10.50;;;6.33;;
22973;SDS011;11653;50.848;4.584;2023-05-07T02:32:55;11.63;;;7.03;;
22973;SDS011;11653;50.848;4.584;2023-05-07T02:35:20;14.30;;;7.13;;
22973;SDS011;11653;50.848;4.584;2023-05-07T02:37:46;12.63;;;7.43;;
22973;SDS011;11653;50.848;4.584;2023-05-07T02:40:12;10.77;;;7.30;;
22973;SDS011;11653;50.848;4.584;2023-05-07T02:42:38;14.33;;;7.70;;
22973;SDS011;11653;50.848;4.584;2023-05-07T02:45:03;11.57;;;7.30;;
22973;SDS011;11653;50.848;4.584;2023-05-07T02:47:29;13.50;;;7.70;;
22973;SDS011;11653;50.848;4.584;2023-05-07T02:49:55;10.80;;;7.57;;
22973;SDS011;11653;50.848;4.584;2023-05-07T02:52:21;11.07;;;6.73;;
22973;SDS011;11653;50.848;4.584;2023-05-07T02:54:47;11.73;;;6.80;;
22973;SDS011;11653;50.848;4.584;2023-05-07T02:57:12;12.80;;;7.50;;
22973;SDS011;11653;50.848;4.584;2023-05-07T02:59:38;14.07;;;7.10;;
22973;SDS011;11653;50.848;4.584;2023-05-07T03:02:04;13.13;;;7.07;;
22973;SDS011;11653;50.848;4.584;2023-05-07T03:04:30;12.20;;;6.97;;
22973;SDS011;11653;50.848;4.584;2023-05-07T03:06:56;12.07;;;6.97;;
22973;SDS011;11653;50.848;4.584;2023-05-07T03:09:21;8.00;;;6.80;;
22973;SDS011;11653;50.848;4.584;2023-05-07T03:11:47;16.50;;;7.53;;
22973;SDS011;11653;50.848;4.584;2023-05-07T03:14:12;13.63;;;7.90;;
22973;SDS011;11653;50.848;4.584;2023-05-07T03:16:38;11.90;;;7.30;;
22973;SDS011;11653;50.848;4.584;2023-05-07T03:19:04;14.27;;;7.33;;
22973;SDS011;11653;50.848;4.584;2023-05-07T03:21:30;14.43;;;8.10;;
22973;SDS011;11653;50.848;4.584;2023-05-07T03:23:58;13.63;;;7.80;;
22973;SDS011;11653;50.848;4.584;2023-05-07T03:26:24;14.50;;;7.53;;
22973;SDS011;11653;50.848;4.584;2023-05-07T03:28:50;10.93;;;7.10;;
22973;SDS011;11653;50.848;4.584;2023-05-07T03:31:16;12.47;;;7.20;;
22973;SDS011;11653;50.848;4.584;2023-05-07T03:33:52;9.80;;;6.90;;
22973;SDS011;11653;50.848;4.584;2023-05-07T03:36:19;12.97;;;7.23;;
22973;SDS011;11653;50.848;4.584;2023-05-07T03:38:45;12.67;;;7.33;;
22973;SDS011;11653;50.848;4.584;2023-05-07T03:41:11;12.77;;;7.33;;
22973;SDS011;11653;50.848;4.584;2023-05-07T03:43:37;11.00;;;7.20;;
22973;SDS011;11653;50.848;4.584;2023-05-07T03:46:03;10.87;;;7.03;;
22973;SDS011;11653;50.848;4.584;2023-05-07T03:48:28;13.83;;;7.30;;
22973;SDS011;11653;50.848;4.584;2023-05-07T03:50:55;12.47;;;6.80;;
22973;SDS011;11653;50.848;4.584;2023-05-07T03:53:22;9.80;;;7.30;;
22973;SDS011;11653;50.848;4.584;2023-05-07T03:55:48;15.27;;;8.13;;
22973;SDS011;11653;50.848;4.584;2023-05-07T03:58:14;11.97;;;7.40;;
22973;SDS011;11653;50.848;4.584;2023-05-07T04:00:40;11.57;;;8.10;;
22973;SDS011;11653;50.848;4.584;2023-05-07T04:03:06;12.07;;;7.07;;
22973;SDS011;11653;50.848;4.584;2023-05-07T04:05:31;11.60;;;7.07;;
22973;SDS011;11653;50.848;4.584;2023-05-07T04:07:57;9.07;;;7.13;;
22973;SDS011;11653;50.848;4.584;2023-05-07T04:10:24;12.37;;;7.60;;
22973;SDS011;11653;50.848;4.584;2023-05-07T04:12:49;9.97;;;6.80;;
22973;SDS011;11653;50.848;4.584;2023-05-07T04:15:15;10.50;;;7.20;;
22973;SDS011;11653;50.848;4.584;2023-05-07T04:17:41;14.60;;;7.60;;
22973;SDS011;11653;50.848;4.584;2023-05-07T04:20:08;10.23;;;7.43;;
22973;SDS011;11653;50.848;4.584;2023-05-07T04:22:35;10.70;;;6.80;;
22973;SDS011;11653;50.848;4.584;2023-05-07T04:25:02;16.10;;;7.30;;
22973;SDS011;11653;50.848;4.584;2023-05-07T04:27:28;12.23;;;7.70;;
22973;SDS011;11653;50.848;4.584;2023-05-07T04:29:54;15.40;;;7.57;;
22973;SDS011;11653;50.848;4.584;2023-05-07T04:32:20;9.83;;;6.70;;
22973;SDS011;11653;50.848;4.584;2023-05-07T04:34:47;10.97;;;7.50;;
22973;SDS011;11653;50.848;4.584;2023-05-07T04:37:12;12.03;;;7.37;;
22973;SDS011;11653;50.848;4.584;2023-05-07T04:39:38;13.80;;;7.20;;
22973;SDS011;11653;50.848;4.584;2023-05-07T04:42:04;12.27;;;7.43;;
22973;SDS011;11653;50.848;4.584;2023-05-07T04:44:30;11.77;;;7.47;;
22973;SDS011;11653;50.848;4.584;2023-05-07T04:46:56;13.87;;;7.13;;
22973;SDS011;11653;50.848;4.584;2023-05-07T04:49:23;13.07;;;7.93;;
22973;SDS011;11653;50.848;4.584;2023-05-07T04:51:49;14.20;;;8.13;;
22973;SDS011;11653;50.848;4.584;2023-05-07T04:54:15;12.83;;;8.00;;
22973;SDS011;11653;50.848;4.584;2023-05-07T04:56:40;12.47;;;8.60;;
22973;SDS011;11653;50.848;4.584;2023-05-07T04:59:06;15.30;;;9.07;;
22973;SDS011;11653;50.848;4.584;2023-05-07T05:01:32;12.50;;;8.17;;
22973;SDS011;11653;50.848;4.584;2023-05-07T05:03:58;13.57;;;8.50;;
22973;SDS011;11653;50.848;4.584;2023-05-07T05:06:25;14.83;;;7.67;;
22973;SDS011;11653;50.848;4.584;2023-05-07T05:08:50;15.70;;;7.97;;
22973;SDS011;11653;50.848;4.584;2023-05-07T05:11:16;17.93;;;9.27;;
22973;SDS011;11653;50.848;4.584;2023-05-07T05:13:42;14.43;;;8.23;;
22973;SDS011;11653;50.848;4.584;2023-05-07T05:16:08;13.90;;;8.13;;
22973;SDS011;11653;50.848;4.584;2023-05-07T05:18:34;12.83;;;7.83;;
22973;SDS011;11653;50.848;4.584;2023-05-07T05:21:03;13.83;;;7.97;;
22973;SDS011;11653;50.848;4.584;2023-05-07T05:23:28;16.67;;;8.67;;
22973;SDS011;11653;50.848;4.584;2023-05-07T05:25:57;13.53;;;9.20;;
22973;SDS011;11653;50.848;4.584;2023-05-07T05:28:23;16.27;;;9.07;;
22973;SDS011;11653;50.848;4.584;2023-05-07T05:30:49;13.17;;;8.40;;
22973;SDS011;11653;50.848;4.584;2023-05-07T05:33:15;14.63;;;8.57;;
22973;SDS011;11653;50.848;4.584;2023-05-07T05:35:41;12.80;;;8.60;;
22973;SDS011;11653;50.848;4.584;2023-05-07T05:38:07;10.80;;;8.07;;
22973;SDS011;11653;50.848;4.584;2023-05-07T05:40:33;12.43;;;7.90;;
22973;SDS011;11653;50.848;4.584;2023-05-07T05:42:59;13.83;;;7.80;;
22973;SDS011;11653;50.848;4.584;2023-05-07T05:45:25;14.13;;;8.30;;
22973;SDS011;11653;50.848;4.584;2023-05-07T05:47:50;16.00;;;9.03;;
22973;SDS011;11653;50.848;4.584;2023-05-07T05:50:16;18.47;;;11.80;;
22973;SDS011;11653;50.848;4.584;2023-05-07T05:52:42;12.17;;;8.50;;
22973;SDS011;11653;50.848;4.584;2023-05-07T05:55:08;14.63;;;8.07;;
22973;SDS011;11653;50.848;4.584;2023-05-07T05:57:34;16.40;;;8.63;;
22973;SDS011;11653;50.848;4.584;2023-05-07T06:00:00;11.97;;;7.80;;
22973;SDS011;11653;50.848;4.584;2023-05-07T06:02:28;17.10;;;9.10;;
22973;SDS011;11653;50.848;4.584;2023-05-07T06:04:53;12.23;;;8.30;;
22973;SDS011;11653;50.848;4.584;2023-05-07T06:07:19;15.93;;;8.27;;
22973;SDS011;11653;50.848;4.584;2023-05-07T06:09:45;17.33;;;8.93;;
22973;SDS011;11653;50.848;4.584;2023-05-07T06:14:47;14.63;;;8.70;;
22973;SDS011;11653;50.848;4.584;2023-05-07T06:17:13;16.67;;;8.60;;
22973;SDS011;11653;50.848;4.584;2023-05-07T06:19:38;18.13;;;9.20;;
22973;SDS011;11653;50.848;4.584;2023-05-07T06:22:05;16.97;;;8.87;;
22973;SDS011;11653;50.848;4.584;2023-05-07T06:24:37;21.27;;;9.70;;
22973;SDS011;11653;50.848;4.584;2023-05-07T06:27:04;14.50;;;8.40;;
22973;SDS011;11653;50.848;4.584;2023-05-07T06:29:31;14.63;;;8.83;;
22973;SDS011;11653;50.848;4.584;2023-05-07T06:32:08;17.03;;;7.97;;
22973;SDS011;11653;50.848;4.584;2023-05-07T06:34:34;18.53;;;8.43;;
22973;SDS011;11653;50.848;4.584;2023-05-07T06:37:00;16.47;;;8.33;;
22973;SDS011;11653;50.848;4.584;2023-05-07T06:39:26;16.67;;;8.53;;
22973;SDS011;11653;50.848;4.584;2023-05-07T06:41:52;17.27;;;8.53;;
22973;SDS011;11653;50.848;4.584;2023-05-07T06:44:18;17.40;;;8.40;;
22973;SDS011;11653;50.848;4.584;2023-05-07T06:46:47;12.03;;;7.20;;
22973;SDS011;11653;50.848;4.584;2023-05-07T06:49:16;20.33;;;8.53;;
22973;SDS011;11653;50.848;4.584;2023-05-07T06:51:53;16.40;;;8.90;;
22973;SDS011;11653;50.848;4.584;2023-05-07T06:54:19;15.27;;;7.10;;
22973;SDS011;11653;50.848;4.584;2023-05-07T06:56:45;10.00;;;5.70;;
22973;SDS011;11653;50.848;4.584;2023-05-07T06:59:11;10.33;;;4.40;;
22973;SDS011;11653;50.848;4.584;2023-05-07T07:01:44;11.73;;;5.07;;
22973;SDS011;11653;50.848;4.584;2023-05-07T07:04:09;16.90;;;4.90;;
22973;SDS011;11653;50.848;4.584;2023-05-07T07:06:35;9.47;;;4.30;;
22973;SDS011;11653;50.848;4.584;2023-05-07T07:09:01;16.77;;;5.27;;
22973;SDS011;11653;50.848;4.584;2023-05-07T07:11:27;11.93;;;4.40;;
22973;SDS011;11653;50.848;4.584;2023-05-07T07:13:52;10.67;;;4.27;;
22973;SDS011;11653;50.848;4.584;2023-05-07T07:16:19;6.30;;;3.67;;
22973;SDS011;11653;50.848;4.584;2023-05-07T07:18:46;6.90;;;3.67;;
22973;SDS011;11653;50.848;4.584;2023-05-07T07:21:12;7.47;;;3.60;;
22973;SDS011;11653;50.848;4.584;2023-05-07T07:23:38;6.00;;;3.37;;
22973;SDS011;11653;50.848;4.584;2023-05-07T07:26:03;8.80;;;3.53;;
22973;SDS011;11653;50.848;4.584;2023-05-07T07:28:30;10.70;;;3.43;;
22973;SDS011;11653;50.848;4.584;2023-05-07T07:30:57;9.70;;;4.10;;
22973;SDS011;11653;50.848;4.584;2023-05-07T07:33:33;11.80;;;3.70;;
22973;SDS011;11653;50.848;4.584;2023-05-07T07:36:25;9.23;;;3.77;;
22973;SDS011;11653;50.848;4.584;2023-05-07T07:38:58;7.33;;;3.53;;
22973;SDS011;11653;50.848;4.584;2023-05-07T07:41:26;10.33;;;4.30;;
22973;SDS011;11653;50.848;4.584;2023-05-07T07:43:53;9.77;;;3.93;;
22973;SDS011;11653;50.848;4.584;2023-05-07T07:46:18;10.60;;;4.10;;
22973;SDS011;11653;50.848;4.584;2023-05-07T07:48:57;8.80;;;4.33;;
22973;SDS011;11653;50.848;4.584;2023-05-07T07:51:28;11.03;;;4.93;;
22973;SDS011;11653;50.848;4.584;2023-05-07T07:53:55;13.10;;;5.27;;
22973;SDS011;11653;50.848;4.584;2023-05-07T07:56:22;8.83;;;4.43;;
22973;SDS011;11653;50.848;4.584;2023-05-07T07:58:49;8.40;;;4.60;;
22973;SDS011;11653;50.848;4.584;2023-05-07T08:01:30;9.20;;;4.50;;
22973;SDS011;11653;50.848;4.584;2023-05-07T08:03:56;7.33;;;3.97;;
22973;SDS011;11653;50.848;4.584;2023-05-07T08:06:24;9.40;;;4.27;;
22973;SDS011;11653;50.848;4.584;2023-05-07T08:08:54;8.97;;;3.97;;
22973;SDS011;11653;50.848;4.584;2023-05-07T08:11:20;11.10;;;4.27;;
22973;SDS011;11653;50.848;4.584;2023-05-07T08:13:46;10.40;;;4.50;;
22973;SDS011;11653;50.848;4.584;2023-05-07T08:16:12;9.83;;;4.47;;
22973;SDS011;11653;50.848;4.584;2023-05-07T08:18:38;10.43;;;4.43;;
22973;SDS011;11653;50.848;4.584;2023-05-07T08:21:03;11.20;;;5.30;;
22973;SDS011;11653;50.848;4.584;2023-05-07T08:23:29;10.10;;;4.80;;
22973;SDS011;11653;50.848;4.584;2023-05-07T08:25:55;8.80;;;4.80;;
22973;SDS011;11653;50.848;4.584;2023-05-07T08:28:21;9.53;;;4.83;;
22973;SDS011;11653;50.848;4.584;2023-05-07T08:30:47;10.47;;;4.90;;
22973;SDS011;11653;50.848;4.584;2023-05-07T08:33:13;13.10;;;5.50;;
22973;SDS011;11653;50.848;4.584;2023-05-07T08:35:38;9.87;;;4.70;;
22973;SDS011;11653;50.848;4.584;2023-05-07T08:38:04;13.23;;;4.43;;
22973;SDS011;11653;50.848;4.584;2023-05-07T08:40:30;8.77;;;4.97;;
22973;SDS011;11653;50.848;4.584;2023-05-07T08:43:07;8.60;;;4.33;;
22973;SDS011;11653;50.848;4.584;2023-05-07T08:45:34;10.87;;;4.60;;
22973;SDS011;11653;50.848;4.584;2023-05-07T08:48:05;10.93;;;5.10;;
22973;SDS011;11653;50.848;4.584;2023-05-07T08:50:39;8.60;;;5.20;;
22973;SDS011;11653;50.848;4.584;2023-05-07T08:53:05;9.97;;;4.20;;
22973;SDS011;11653;50.848;4.584;2023-05-07T08:55:31;9.13;;;4.83;;
22973;SDS011;11653;50.848;4.584;2023-05-07T08:57:58;11.33;;;4.33;;
22973;SDS011;11653;50.848;4.584;2023-05-07T09:00:24;8.90;;;3.90;;
22973;SDS011;11653;50.848;4.584;2023-05-07T09:02:50;9.33;;;4.53;;
22973;SDS011;11653;50.848;4.584;2023-05-07T09:05:15;8.53;;;4.87;;
22973;SDS011;11653;50.848;4.584;2023-05-07T09:07:41;8.23;;;4.30;;
22973;SDS011;11653;50.848;4.584;2023-05-07T09:10:07;8.47;;;4.27;;
22973;SDS011;11653;50.848;4.584;2023-05-07T09:12:33;8.13;;;4.57;;
22973;SDS011;11653;50.848;4.584;2023-05-07T09:15:00;10.23;;;5.10;;
22973;SDS011;11653;50.848;4.584;2023-05-07T09:17:27;8.83;;;4.77;;
22973;SDS011;11653;50.848;4.584;2023-05-07T09:19:53;9.87;;;4.70;;
22973;SDS011;11653;50.848;4.584;2023-05-07T09:22:19;10.40;;;4.90;;
22973;SDS011;11653;50.848;4.584;2023-05-07T09:24:49;8.17;;;4.23;;
22973;SDS011;11653;50.848;4.584;2023-05-07T09:27:15;7.23;;;4.17;;
22973;SDS011;11653;50.848;4.584;2023-05-07T09:29:40;8.90;;;5.13;;
22973;SDS011;11653;50.848;4.584;2023-05-07T09:32:06;6.90;;;4.77;;
22973;SDS011;11653;50.848;4.584;2023-05-07T09:34:33;7.37;;;4.77;;
22973;SDS011;11653;50.848;4.584;2023-05-07T09:37:03;6.00;;;4.53;;
22973;SDS011;11653;50.848;4.584;2023-05-07T09:39:39;9.20;;;4.93;;
22973;SDS011;11653;50.848;4.584;2023-05-07T09:42:10;10.33;;;5.20;;
22973;SDS011;11653;50.848;4.584;2023-05-07T09:44:37;10.50;;;4.63;;
22973;SDS011;11653;50.848;4.584;2023-05-07T09:47:06;8.90;;;4.80;;
22973;SDS011;11653;50.848;4.584;2023-05-07T09:49:33;9.57;;;5.00;;
22973;SDS011;11653;50.848;4.584;2023-05-07T09:52:01;9.40;;;5.07;;
22973;SDS011;11653;50.848;4.584;2023-05-07T09:54:30;11.23;;;4.63;;
22973;SDS011;11653;50.848;4.584;2023-05-07T09:56:57;7.00;;;4.13;;
22973;SDS011;11653;50.848;4.584;2023-05-07T09:59:27;10.13;;;4.70;;
22973;SDS011;11653;50.848;4.584;2023-05-07T10:01:56;6.73;;;4.33;;
22973;SDS011;11653;50.848;4.584;2023-05-07T10:04:25;11.27;;;4.13;;
22973;SDS011;11653;50.848;4.584;2023-05-07T10:06:51;8.40;;;4.40;;
22973;SDS011;11653;50.848;4.584;2023-05-07T10:09:19;12.00;;;4.87;;
22973;SDS011;11653;50.848;4.584;2023-05-07T10:11:47;5.90;;;4.40;;
22973;SDS011;11653;50.848;4.584;2023-05-07T10:14:14;10.47;;;4.90;;
22973;SDS011;11653;50.848;4.584;2023-05-07T10:16:40;8.53;;;5.00;;
22973;SDS011;11653;50.848;4.584;2023-05-07T10:19:07;10.63;;;4.50;;
22973;SDS011;11653;50.848;4.584;2023-05-07T10:21:48;11.03;;;4.70;;
22973;SDS011;11653;50.848;4.584;2023-05-07T10:24:26;8.27;;;4.53;;
22973;SDS011;11653;50.848;4.584;2023-05-07T10:26:56;6.60;;;4.10;;
22973;SDS011;11653;50.848;4.584;2023-05-07T10:34:53;8.33;;;4.10;;
22973;SDS011;11653;50.848;4.584;2023-05-07T10:37:24;9.93;;;4.00;;
22973;SDS011;11653;50.848;4.584;2023-05-07T10:39:51;8.40;;;4.10;;
22973;SDS011;11653;50.848;4.584;2023-05-07T10:42:18;5.03;;;3.90;;
22973;SDS011;11653;50.848;4.584;2023-05-07T10:44:46;8.53;;;4.23;;
22973;SDS011;11653;50.848;4.584;2023-05-07T10:47:13;6.07;;;3.60;;
22973;SDS011;11653;50.848;4.584;2023-05-07T10:52:22;6.13;;;2.93;;
22973;SDS011;11653;50.848;4.584;2023-05-07T10:57:59;6.33;;;2.50;;
22973;SDS011;11653;50.848;4.584;2023-05-07T11:00:55;5.40;;;2.40;;
22973;SDS011;11653;50.848;4.584;2023-05-07T11:06:43;4.70;;;2.27;;
22973;SDS011;11653;50.848;4.584;2023-05-07T11:15:03;9.00;;;3.43;;
22973;SDS011;11653;50.848;4.584;2023-05-07T11:17:30;8.97;;;3.93;;
22973;SDS011;11653;50.848;4.584;2023-05-07T11:19:59;6.70;;;3.20;;
22973;SDS011;11653;50.848;4.584;2023-05-07T11:25:01;4.40;;;2.30;;
22973;SDS011;11653;50.848;4.584;2023-05-07T11:27:28;3.87;;;2.00;;
22973;SDS011;11653;50.848;4.584;2023-05-07T11:29:54;15.20;;;4.27;;
22973;SDS011;11653;50.848;4.584;2023-05-07T11:32:24;5.30;;;2.67;;
22973;SDS011;11653;50.848;4.584;2023-05-07T11:34:55;6.70;;;2.20;;
22973;SDS011;11653;50.848;4.584;2023-05-07T11:37:23;6.13;;;2.40;;
22973;SDS011;11653;50.848;4.584;2023-05-07T11:39:49;6.20;;;2.07;;
22973;SDS011;11653;50.848;4.584;2023-05-07T11:42:34;4.63;;;2.23;;
22973;SDS011;11653;50.848;4.584;2023-05-07T11:45:04;4.97;;;2.50;;
22973;SDS011;11653;50.848;4.584;2023-05-07T11:47:34;4.57;;;2.10;;
22973;SDS011;11653;50.848;4.584;2023-05-07T11:50:04;6.80;;;2.30;;
22973;SDS011;11653;50.848;4.584;2023-05-07T11:52:35;4.40;;;2.07;;
22973;SDS011;11653;50.848;4.584;2023-05-07T11:55:02;3.27;;;2.40;;
22973;SDS011;11653;50.848;4.584;2023-05-07T11:57:30;6.47;;;2.70;;
22973;SDS011;11653;50.848;4.584;2023-05-07T12:00:00;3.30;;;2.10;;
22973;SDS011;11653;50.848;4.584;2023-05-07T12:02:28;4.40;;;2.20;;
22973;SDS011;11653;50.848;4.584;2023-05-07T12:05:00;5.43;;;2.03;;
22973;SDS011;11653;50.848;4.584;2023-05-07T12:07:28;4.83;;;2.10;;
22973;SDS011;11653;50.848;4.584;2023-05-07T12:09:57;3.70;;;2.20;;
22973;SDS011;11653;50.848;4.584;2023-05-07T12:12:37;4.50;;;1.93;;
22973;SDS011;11653;50.848;4.584;2023-05-07T12:15:09;3.80;;;2.33;;
22973;SDS011;11653;50.848;4.584;2023-05-07T12:17:42;4.57;;;2.10;;
22973;SDS011;11653;50.848;4.584;2023-05-07T12:20:10;5.67;;;2.47;;
22973;SDS011;11653;50.848;4.584;2023-05-07T12:22:36;4.47;;;2.33;;
22973;SDS011;11653;50.848;4.584;2023-05-07T12:25:04;3.40;;;2.20;;
22973;SDS011;11653;50.848;4.584;2023-05-07T12:27:31;5.73;;;2.07;;
22973;SDS011;11653;50.848;4.584;2023-05-07T12:29:57;4.73;;;2.40;;
22973;SDS011;11653;50.848;4.584;2023-05-07T12:32:26;5.20;;;1.90;;
22973;SDS011;11653;50.848;4.584;2023-05-07T12:34:54;4.87;;;2.10;;
22973;SDS011;11653;50.848;4.584;2023-05-07T12:37:26;3.23;;;2.40;;
22973;SDS011;11653;50.848;4.584;2023-05-07T12:40:08;4.57;;;2.20;;
22973;SDS011;11653;50.848;4.584;2023-05-07T12:42:35;5.53;;;2.60;;
22973;SDS011;11653;50.848;4.584;2023-05-07T12:48:25;5.40;;;2.40;;
22973;SDS011;11653;50.848;4.584;2023-05-07T12:50:55;3.10;;;2.00;;
22973;SDS011;11653;50.848;4.584;2023-05-07T12:53:23;6.70;;;2.57;;
22973;SDS011;11653;50.848;4.584;2023-05-07T12:55:51;4.93;;;2.20;;
22973;SDS011;11653;50.848;4.584;2023-05-07T13:01:06;7.37;;;2.60;;
22973;SDS011;11653;50.848;4.584;2023-05-07T13:03:35;5.10;;;2.63;;
22973;SDS011;11653;50.848;4.584;2023-05-07T13:06:02;6.30;;;2.60;;
22973;SDS011;11653;50.848;4.584;2023-05-07T13:08:35;10.30;;;5.60;;
22973;SDS011;11653;50.848;4.584;2023-05-07T13:11:03;7.67;;;4.10;;
22973;SDS011;11653;50.848;4.584;2023-05-07T13:13:30;4.20;;;2.47;;
22973;SDS011;11653;50.848;4.584;2023-05-07T13:15:56;4.93;;;2.40;;
22973;SDS011;11653;50.848;4.584;2023-05-07T13:18:23;2.73;;;1.93;;
22973;SDS011;11653;50.848;4.584;2023-05-07T13:20:50;4.43;;;2.10;;
22973;SDS011;11653;50.848;4.584;2023-05-07T13:23:16;3.17;;;2.20;;
22973;SDS011;11653;50.848;4.584;2023-05-07T13:25:42;4.87;;;2.30;;
22973;SDS011;11653;50.848;4.584;2023-05-07T13:28:08;4.87;;;2.20;;
22973;SDS011;11653;50.848;4.584;2023-05-07T13:30:33;4.53;;;2.17;;
22973;SDS011;11653;50.848;4.584;2023-05-07T13:32:59;5.50;;;2.10;;
22973;SDS011;11653;50.848;4.584;2023-05-07T13:35:25;3.90;;;2.00;;
22973;SDS011;11653;50.848;4.584;2023-05-07T13:37:53;8.97;;;2.90;;
22973;SDS011;11653;50.848;4.584;2023-05-07T13:40:19;5.80;;;2.50;;
22973;SDS011;11653;50.848;4.584;2023-05-07T13:42:46;5.50;;;2.30;;
22973;SDS011;11653;50.848;4.584;2023-05-07T13:45:12;3.87;;;2.10;;
22973;SDS011;11653;50.848;4.584;2023-05-07T13:47:41;7.27;;;3.10;;
22973;SDS011;11653;50.848;4.584;2023-05-07T13:50:08;4.60;;;2.27;;
22973;SDS011;11653;50.848;4.584;2023-05-07T13:52:34;3.93;;;2.37;;
22973;SDS011;11653;50.848;4.584;2023-05-07T13:55:00;4.50;;;2.83;;
22973;SDS011;11653;50.848;4.584;2023-05-07T13:57:26;4.23;;;2.47;;
22973;SDS011;11653;50.848;4.584;2023-05-07T13:59:52;4.57;;;2.67;;
22973;SDS011;11653;50.848;4.584;2023-05-07T14:02:17;4.67;;;3.10;;
22973;SDS011;11653;50.848;4.584;2023-05-07T14:04:43;6.00;;;2.77;;
22973;SDS011;11653;50.848;4.584;2023-05-07T14:07:10;5.37;;;2.70;;
22973;SDS011;11653;50.848;4.584;2023-05-07T14:09:35;6.80;;;3.00;;
22973;SDS011;11653;50.848;4.584;2023-05-07T14:12:01;3.53;;;2.50;;
22973;SDS011;11653;50.848;4.584;2023-05-07T14:14:27;4.13;;;2.50;;
22973;SDS011;11653;50.848;4.584;2023-05-07T14:16:53;3.63;;;2.70;;
22973;SDS011;11653;50.848;4.584;2023-05-07T14:19:18;2.90;;;2.60;;
22973;SDS011;11653;50.848;4.584;2023-05-07T14:21:44;4.23;;;3.10;;
22973;SDS011;11653;50.848;4.584;2023-05-07T14:24:10;4.37;;;2.73;;
22973;SDS011;11653;50.848;4.584;2023-05-07T14:26:38;4.33;;;3.20;;
22973;SDS011;11653;50.848;4.584;2023-05-07T14:29:04;5.47;;;2.73;;
22973;SDS011;11653;50.848;4.584;2023-05-07T14:31:30;4.73;;;3.60;;
22973;SDS011;11653;50.848;4.584;2023-05-07T14:33:56;5.67;;;3.80;;
22973;SDS011;11653;50.848;4.584;2023-05-07T14:36:25;4.60;;;3.07;;
22973;SDS011;11653;50.848;4.584;2023-05-07T14:38:55;5.37;;;3.40;;
22973;SDS011;11653;50.848;4.584;2023-05-07T14:41:24;5.87;;;3.97;;
22973;SDS011;11653;50.848;4.584;2023-05-07T14:43:52;4.67;;;3.70;;
22973;SDS011;11653;50.848;4.584;2023-05-07T14:46:18;4.93;;;3.50;;
22973;SDS011;11653;50.848;4.584;2023-05-07T14:48:46;5.43;;;4.07;;
22973;SDS011;11653;50.848;4.584;2023-05-07T14:51:15;7.00;;;3.43;;
22973;SDS011;11653;50.848;4.584;2023-05-07T14:53:41;6.03;;;4.30;;
22973;SDS011;11653;50.848;4.584;2023-05-07T14:56:07;4.53;;;3.90;;
22973;SDS011;11653;50.848;4.584;2023-05-07T14:58:33;8.27;;;3.60;;
22973;SDS011;11653;50.848;4.584;2023-05-07T15:00:59;4.23;;;3.80;;
22973;SDS011;11653;50.848;4.584;2023-05-07T15:03:28;4.40;;;3.60;;
22973;SDS011;11653;50.848;4.584;2023-05-07T15:05:55;5.57;;;3.50;;
22973;SDS011;11653;50.848;4.584;2023-05-07T15:08:21;4.73;;;3.43;;
22973;SDS011;11653;50.848;4.584;2023-05-07T15:10:47;6.07;;;3.77;;
22973;SDS011;11653;50.848;4.584;2023-05-07T15:13:12;6.70;;;4.23;;